Panhandle, Texas
Current Conditions -  °F | °C
As of 9:28 AM on Saturday 20 Dec 2014 (Local Time) from KAMA Reporting Station
Moderate Fog Moderate Fog  
Wind Chill: 26°   Ceiling: 200
Heat Index: 32°   Visibility: 0.25mi
Dew Point: 31°   Wind: 7mph
Humidity: 96%   Direction: 230°SW
Pressure: 30.12"   Gusts: NA
Location:  35.35°N, 101.38°W
Report Text: KAMA 201528Z 23006KT 1/4SM R04/1400V4000FT FG VV002 00/M01 A3012 RMK AO2 T00001006
Loading
Personal Weather Stations






























Interactive Weather Map New forecast layout! Learn more

10-Day Weather Forecast

Advertisements
Track Severe Weather on mobile